Time;durP1;ratioP1;P1;durP2;ratioP2;P2;SDS_P1;SDS_P2;PMS_P1;PMS_P2;Temp;Humidity;BMP_temperature;BMP_pressure;BME280_temperature;BME280_humidity;BME280_pressure;Samples;Min_cycle;Max_cycle;Signal;HPM_P1;HPM_P2
2022/10/25 00:02:24;;;;;;;16.00;7.65;;;12.50;99.90;;;;;;4880913;29;20045;-71
2022/10/25 00:04:50;;;;;;;13.82;7.30;;;12.60;99.90;;;;;;4880484;29;20056;-71
2022/10/25 00:07:15;;;;;;;16.77;7.90;;;12.60;99.90;;;;;;4880474;29;20053;-71
2022/10/25 00:09:41;;;;;;;13.80;9.18;;;12.60;99.90;;;;;;4881163;29;20376;-71
2022/10/25 00:12:07;;;;;;;15.45;10.50;;;12.60;99.90;;;;;;4881500;29;20147;-71
2022/10/25 00:14:34;;;;;;;13.20;9.82;;;12.60;99.90;;;;;;4880282;29;20045;-71
2022/10/25 00:16:59;;;;;;;16.08;10.45;;;12.60;99.90;;;;;;4881009;29;20057;-71
2022/10/25 00:19:25;;;;;;;18.63;10.00;;;12.60;99.90;;;;;;4880630;29;20045;-71
2022/10/25 00:21:51;;;;;;;17.10;9.27;;;12.70;99.90;;;;;;4881593;29;20057;-71
2022/10/25 00:24:17;;;;;;;11.63;8.13;;;12.60;99.90;;;;;;4880130;29;20045;-71
2022/10/25 00:26:43;;;;;;;17.13;9.52;;;12.60;99.90;;;;;;4880374;29;20135;-71
2022/10/25 00:29:09;;;;;;;18.10;9.07;;;12.60;99.90;;;;;;4880301;29;20049;-71
2022/10/25 00:31:36;;;;;;;19.90;10.70;;;12.60;99.90;;;;;;4865189;29;20068;-71
2022/10/25 00:34:02;;;;;;;14.40;8.75;;;12.60;99.90;;;;;;4880453;29;20067;-71
2022/10/25 00:36:28;;;;;;;16.65;7.88;;;12.60;99.90;;;;;;4880140;29;20053;-71
2022/10/25 00:38:56;;;;;;;13.73;7.50;;;12.60;99.90;;;;;;4880032;29;20045;-71
2022/10/25 00:41:26;;;;;;;14.20;7.40;;;12.60;99.90;;;;;;4880593;29;20045;-71
2022/10/25 00:43:54;;;;;;;12.80;6.43;;;12.60;99.90;;;;;;4880957;29;20041;-71
2022/10/25 00:46:20;;;;;;;11.40;6.60;;;12.60;99.90;;;;;;4880249;29;20061;-71
2022/10/25 00:49:14;;;;;;;14.75;6.38;;;12.60;99.90;;;;;;4880215;29;20056;-71
2022/10/25 00:51:45;;;;;;;13.45;7.60;;;12.60;99.90;;;;;;4879805;29;20079;-71
2022/10/25 00:54:16;;;;;;;13.82;7.43;;;12.70;99.90;;;;;;4880759;29;20045;-71
2022/10/25 00:56:44;;;;;;;11.07;7.13;;;12.60;99.90;;;;;;4880671;29;20060;-71
2022/10/25 00:59:14;;;;;;;14.68;6.93;;;12.60;99.90;;;;;;4880946;29;20203;-71
2022/10/25 01:01:40;;;;;;;15.45;8.02;;;12.70;99.90;;;;;;4879583;29;20049;-71
2022/10/25 01:04:10;;;;;;;14.55;8.73;;;12.70;99.90;;;;;;4880758;29;20048;-71
2022/10/25 01:06:39;;;;;;;20.75;9.15;;;12.70;99.90;;;;;;4880648;29;20103;-71
2022/10/25 01:09:08;;;;;;;15.98;7.88;;;12.70;99.90;;;;;;4880958;29;20081;-71
2022/10/25 01:11:36;;;;;;;16.95;8.73;;;12.70;99.90;;;;;;4880075;29;20052;-71
2022/10/25 01:14:03;;;;;;;17.48;9.43;;;12.70;99.90;;;;;;4880588;29;20041;-71
2022/10/25 01:16:59;;;;;;;15.55;9.63;;;12.70;99.90;;;;;;4880565;29;20108;-71
2022/10/25 01:20:03;;;;;;;18.52;11.50;;;12.70;99.90;;;;;;4879661;29;20049;-71
2022/10/25 01:22:39;;;;;;;24.73;13.73;;;12.70;99.90;;;;;;4879452;29;20060;-71
2022/10/25 01:25:19;;;;;;;19.15;12.07;;;12.80;99.90;;;;;;4880209;29;20049;-71
2022/10/25 01:28:00;;;;;;;23.70;13.05;;;12.80;99.90;;;;;;4864158;29;20059;-71
2022/10/25 01:30:48;;;;;;;24.50;14.30;;;12.80;99.90;;;;;;4879562;29;20056;-71
2022/10/25 01:33:26;;;;;;;24.42;15.75;;;12.90;99.90;;;;;;4880416;29;20383;-71
2022/10/25 01:36:05;;;;;;;23.85;13.70;;;12.90;99.90;;;;;;4879154;29;20048;-71
2022/10/25 01:38:46;;;;;;;24.15;12.43;;;12.90;99.90;;;;;;4879192;29;20053;-71
2022/10/25 01:41:21;;;;;;;26.13;13.27;;;13.00;99.90;;;;;;4879684;29;20059;-70
2022/10/25 01:44:11;;;;;;;22.27;13.68;;;13.00;99.90;;;;;;4880075;29;20048;-71
2022/10/25 01:46:39;;;;;;;24.02;13.88;;;13.00;99.90;;;;;;4879635;29;20056;-70
2022/10/25 01:49:11;;;;;;;22.50;12.48;;;13.00;99.90;;;;;;4880252;29;20053;-71
2022/10/25 01:51:37;;;;;;;21.83;13.27;;;13.00;99.90;;;;;;4880195;29;20530;-70
2022/10/25 01:54:20;;;;;;;20.90;13.10;;;13.00;99.90;;;;;;4880230;29;20053;-71
2022/10/25 01:56:54;;;;;;;;;;;13.10;99.90;;;;;;4879311;29;20100;-70
2022/10/25 01:59:35;;;;;;;27.48;13.88;;;13.10;99.90;;;;;;4880042;29;20395;-70
2022/10/25 02:02:28;;;;;;;22.55;12.70;;;13.10;99.90;;;;;;4879223;29;20414;-70
2022/10/25 02:05:00;;;;;;;20.33;12.70;;;13.10;99.90;;;;;;4878625;29;20087;-72
2022/10/25 02:07:41;;;;;;;22.30;12.57;;;13.10;99.90;;;;;;4879916;29;20088;-71
2022/10/25 02:10:25;;;;;;;24.25;13.63;;;13.10;99.90;;;;;;4879253;29;20061;-71
2022/10/25 02:13:00;;;;;;;21.80;13.10;;;13.20;99.90;;;;;;4879624;29;20059;-71
2022/10/25 02:15:59;;;;;;;17.42;11.35;;;13.20;99.90;;;;;;4878704;29;20103;-71
2022/10/25 02:18:28;;;;;;;17.95;10.90;;;13.20;99.90;;;;;;4863525;29;20061;-71
2022/10/25 02:20:56;;;;;;;17.85;9.43;;;13.20;99.90;;;;;;4879572;29;20529;-72
2022/10/25 02:23:22;;;;;;;17.67;9.90;;;13.20;99.90;;;;;;4863061;29;20061;-71
2022/10/25 02:25:50;;;;;;;18.48;9.70;;;13.20;99.90;;;;;;4879312;29;20189;-72
2022/10/25 02:28:18;;;;;;;13.68;8.98;;;13.20;99.90;;;;;;4879347;29;20128;-72
2022/10/25 02:30:44;;;;;;;18.23;9.10;;;13.20;99.90;;;;;;4869595;29;20049;-72
2022/10/25 02:33:10;;;;;;;14.43;8.77;;;13.20;99.90;;;;;;4885732;29;20503;-72
2022/10/25 02:35:36;;;;;;;15.07;9.25;;;13.20;99.90;;;;;;4884730;29;20052;-72
2022/10/25 02:38:02;;;;;;;20.17;10.02;;;13.10;99.90;;;;;;4869286;29;20052;-72
2022/10/25 02:40:28;;;;;;;15.50;8.27;;;13.10;99.90;;;;;;4883724;29;20103;-72
2022/10/25 02:42:54;;;;;;;16.13;9.77;;;13.10;99.90;;;;;;4885693;29;20105;-72
2022/10/25 02:45:20;;;;;;;16.27;9.95;;;13.10;99.90;;;;;;4886020;29;20469;-72
2022/10/25 02:47:45;;;;;;;20.02;11.45;;;13.20;99.90;;;;;;4869374;29;20061;-72
2022/10/25 02:50:11;;;;;;;16.38;10.57;;;13.10;99.90;;;;;;4884695;29;20049;-71
2022/10/25 02:52:37;;;;;;;18.98;11.63;;;13.10;99.90;;;;;;4885581;29;20097;-72
2022/10/25 02:55:03;;;;;;;19.20;11.40;;;13.10;99.90;;;;;;4885382;29;20101;-72
2022/10/25 02:57:36;;;;;;;15.57;10.45;;;13.10;99.90;;;;;;4884562;29;20063;-72
2022/10/25 03:00:05;;;;;;;;;;;13.10;99.90;;;;;;4886099;29;20056;-72
2022/10/25 03:02:31;;;;;;;16.20;10.13;;;13.10;99.90;;;;;;4884033;29;19927;-72
2022/10/25 03:04:57;;;;;;;15.32;9.68;;;13.10;99.90;;;;;;4885424;29;20135;-72
2022/10/25 03:07:22;;;;;;;19.33;10.32;;;13.10;99.90;;;;;;4884529;29;20512;-71
2022/10/25 03:09:48;;;;;;;14.05;9.18;;;13.10;99.90;;;;;;4883746;29;20132;-72
2022/10/25 03:12:14;;;;;;;15.75;9.02;;;13.10;99.90;;;;;;4885624;29;20065;-71
2022/10/25 03:14:39;;;;;;;17.80;9.32;;;13.10;99.90;;;;;;4885446;29;20053;-71
2022/10/25 03:17:06;;;;;;;12.85;8.75;;;13.10;99.90;;;;;;4885454;29;20137;-71
2022/10/25 03:19:32;;;;;;;17.02;9.48;;;13.10;99.90;;;;;;4885442;29;20061;-71
2022/10/25 03:21:58;;;;;;;14.27;9.05;;;13.10;99.90;;;;;;4885183;29;20052;-72
2022/10/25 03:24:25;;;;;;;15.25;8.60;;;13.10;99.90;;;;;;4885019;29;20131;-72
2022/10/25 03:26:50;;;;;;;16.45;9.45;;;13.10;99.90;;;;;;4884168;29;20092;-72
2022/10/25 03:29:16;;;;;;;15.68;9.38;;;13.10;99.90;;;;;;4885291;29;20080;-71
2022/10/25 03:31:42;;;;;;;13.15;8.70;;;13.10;99.90;;;;;;4884168;29;20045;-72
2022/10/25 03:34:07;;;;;;;14.93;9.02;;;13.10;99.90;;;;;;4883930;29;20124;-72
2022/10/25 03:36:33;;;;;;;13.15;8.02;;;13.10;99.90;;;;;;4883997;29;20095;-72
2022/10/25 03:38:59;;;;;;;14.43;8.57;;;13.10;99.90;;;;;;4884948;29;20140;-72
2022/10/25 03:41:24;;;;;;;13.45;8.77;;;13.10;99.90;;;;;;4880829;29;20052;-72
2022/10/25 03:43:50;;;;;;;14.32;7.47;;;13.20;99.90;;;;;;4882160;29;20045;-72
2022/10/25 03:46:15;;;;;;;13.85;7.75;;;13.10;99.90;;;;;;4882268;29;20060;-72
2022/10/25 03:48:41;;;;;;;11.52;7.25;;;13.10;99.90;;;;;;4882227;29;20055;-72
2022/10/25 03:51:07;;;;;;;13.25;8.20;;;13.10;99.90;;;;;;4881212;29;20482;-72
2022/10/25 03:53:33;;;;;;;14.38;8.68;;;13.10;99.90;;;;;;4881821;29;20045;-72
2022/10/25 03:55:58;;;;;;;13.75;8.05;;;13.10;99.90;;;;;;4882156;29;20098;-72
2022/10/25 03:58:24;;;;;;;13.40;8.63;;;13.10;99.90;;;;;;4865689;29;20053;-72
2022/10/25 04:00:50;;;;;;;15.25;8.65;;;13.10;99.90;;;;;;4881207;29;20052;-72
2022/10/25 04:03:15;;;;;;;15.18;8.32;;;13.10;99.90;;;;;;4880628;29;20044;-72
2022/10/25 04:05:41;;;;;;;18.65;9.68;;;13.10;99.90;;;;;;4880552;29;20068;-72
2022/10/25 04:08:07;;;;;;;16.95;10.32;;;13.10;99.90;;;;;;4881862;29;20053;-72
2022/10/25 04:10:33;;;;;;;16.88;9.30;;;13.10;99.90;;;;;;4880224;29;20165;-72
2022/10/25 04:12:58;;;;;;;22.13;12.18;;;13.10;99.90;;;;;;4881003;29;20513;-72
2022/10/25 04:15:24;;;;;;;19.30;11.57;;;13.10;99.90;;;;;;4865299;29;20093;-72
2022/10/25 04:17:51;;;;;;;18.67;11.98;;;13.10;99.90;;;;;;4865443;29;20463;-72
2022/10/25 04:20:17;;;;;;;19.65;13.38;;;13.10;99.90;;;;;;4881494;29;20072;-72
2022/10/25 04:22:43;;;;;;;22.13;13.40;;;13.10;99.90;;;;;;4864918;29;20053;-72
2022/10/25 04:25:08;;;;;;;20.40;12.40;;;13.10;99.90;;;;;;4865260;29;20063;-71
2022/10/25 04:27:34;;;;;;;20.05;10.55;;;13.10;99.90;;;;;;4865222;29;20059;-72
2022/10/25 04:30:00;;;;;;;17.98;10.20;;;13.10;99.90;;;;;;4881397;29;20486;-72
2022/10/25 04:32:25;;;;;;;18.80;9.23;;;13.10;99.90;;;;;;4865251;29;20471;-72
2022/10/25 04:34:51;;;;;;;16.98;8.85;;;13.10;99.90;;;;;;4881195;29;20144;-72
2022/10/25 04:37:17;;;;;;;22.27;8.90;;;13.10;99.90;;;;;;4880031;29;20049;-72
2022/10/25 04:39:42;;;;;;;16.38;8.27;;;13.00;99.90;;;;;;4880372;29;20063;-72
2022/10/25 04:42:08;;;;;;;13.65;7.35;;;13.00;99.90;;;;;;4879895;29;20068;-72
2022/10/25 04:44:34;;;;;;;15.38;7.75;;;13.00;99.90;;;;;;4881153;29;20048;-72
2022/10/25 04:46:59;;;;;;;14.57;8.05;;;12.90;99.90;;;;;;4879997;29;20048;-72
2022/10/25 04:49:25;;;;;;;11.57;7.40;;;12.90;99.90;;;;;;4881191;29;20080;-71
2022/10/25 04:51:51;;;;;;;13.60;7.07;;;12.90;99.90;;;;;;4863767;29;20053;-72
2022/10/25 04:54:16;;;;;;;16.63;7.35;;;12.90;99.90;;;;;;4879938;29;20052;-72
2022/10/25 04:56:42;;;;;;;13.40;6.85;;;12.90;99.90;;;;;;4880972;29;20084;-72
2022/10/25 04:59:08;;;;;;;12.07;6.80;;;12.80;99.90;;;;;;4880964;29;20075;-71
2022/10/25 05:01:34;;;;;;;19.08;7.50;;;12.90;99.90;;;;;;4881232;29;20406;-72
2022/10/25 05:04:00;;;;;;;16.67;7.35;;;12.90;99.90;;;;;;4864186;29;20045;-72
2022/10/25 05:06:26;;;;;;;13.10;6.93;;;12.90;99.90;;;;;;4880629;29;20128;-72
2022/10/25 05:08:53;;;;;;;12.68;7.40;;;12.80;99.90;;;;;;4879634;29;20080;-72
2022/10/25 05:11:21;;;;;;;19.25;8.85;;;12.80;99.90;;;;;;4879254;29;20064;-72
2022/10/25 05:13:47;;;;;;;16.90;8.88;;;12.80;99.90;;;;;;4880626;29;20048;-72
2022/10/25 05:16:23;;;;;;;13.20;7.57;;;12.80;99.90;;;;;;4864134;29;20059;-72
2022/10/25 05:18:50;;;;;;;16.08;8.23;;;12.80;99.90;;;;;;4880608;29;20056;-72
2022/10/25 05:21:17;;;;;;;18.50;8.30;;;12.80;99.90;;;;;;4880304;29;20057;-72
2022/10/25 05:23:43;;;;;;;16.98;7.97;;;12.80;99.90;;;;;;4879394;29;20410;-72
2022/10/25 05:26:13;;;;;;;17.98;8.68;;;12.80;99.90;;;;;;4879242;29;20052;-72
2022/10/25 05:28:41;;;;;;;18.55;8.13;;;12.80;99.90;;;;;;4879138;29;20498;-72
2022/10/25 05:31:08;;;;;;;20.58;8.65;;;12.80;99.90;;;;;;4880355;29;20053;-72
2022/10/25 05:33:34;;;;;;;14.90;8.50;;;12.80;99.90;;;;;;4879085;29;20376;-72
2022/10/25 05:36:01;;;;;;;20.40;9.00;;;12.80;99.90;;;;;;4879446;29;20104;-71
2022/10/25 05:38:28;;;;;;;19.77;9.00;;;12.70;99.90;;;;;;4880315;29;20064;-72
2022/10/25 05:40:58;;;;;;;19.50;8.70;;;12.80;99.90;;;;;;4863462;29;20517;-72
2022/10/25 05:43:25;;;;;;;17.70;9.38;;;12.80;99.90;;;;;;4879047;29;20053;-72
2022/10/25 05:45:59;;;;;;;18.33;9.20;;;12.80;99.90;;;;;;4880302;29;20554;-72
2022/10/25 05:48:25;;;;;;;18.60;8.57;;;12.80;99.90;;;;;;4880143;29;20053;-72
2022/10/25 05:50:52;;;;;;;18.63;8.77;;;12.80;99.90;;;;;;4879458;29;20049;-71
2022/10/25 05:53:18;;;;;;;15.52;7.93;;;12.90;99.90;;;;;;4879080;29;20097;-72
2022/10/25 05:55:44;;;;;;;16.30;8.75;;;12.90;99.90;;;;;;4879872;29;20053;-72
2022/10/25 05:58:09;;;;;;;18.73;8.95;;;12.90;99.90;;;;;;4878801;29;20088;-71
2022/10/25 06:00:35;;;;;;;17.60;9.68;;;12.90;99.90;;;;;;4878532;29;20049;-72
2022/10/25 06:03:01;;;;;;;15.52;8.23;;;12.90;99.90;;;;;;4878214;29;20049;-71
2022/10/25 06:05:27;;;;;;;18.80;9.45;;;12.90;99.90;;;;;;4879785;29;20059;-71
2022/10/25 06:07:53;;;;;;;17.95;9.57;;;13.00;99.90;;;;;;4848104;29;20143;-72
2022/10/25 06:10:18;;;;;;;15.40;10.00;;;13.00;99.90;;;;;;4878978;29;20056;-71
2022/10/25 06:12:44;;;;;;;19.13;9.77;;;13.00;99.90;;;;;;4879668;29;20057;-71
2022/10/25 06:15:10;;;;;;;16.27;9.10;;;13.00;99.90;;;;;;4879538;29;20049;-72
2022/10/25 06:17:36;;;;;;;19.13;9.27;;;13.00;99.90;;;;;;4878627;29;20187;-72
2022/10/25 06:20:01;;;;;;;18.08;8.88;;;13.00;99.90;;;;;;4878753;29;20064;-72
2022/10/25 06:22:27;;;;;;;20.73;9.52;;;13.00;99.90;;;;;;4879924;29;20053;-72
2022/10/25 06:24:53;;;;;;;17.42;10.35;;;13.00;99.90;;;;;;4878339;29;20085;-72
2022/10/25 06:27:18;;;;;;;18.63;10.50;;;13.00;99.90;;;;;;4879554;29;20055;-72
2022/10/25 06:29:44;;;;;;;20.95;11.60;;;13.00;99.90;;;;;;4878415;29;20052;-72
2022/10/25 06:32:09;;;;;;;21.98;12.73;;;13.00;99.90;;;;;;4862857;29;20275;-71
2022/10/25 06:34:35;;;;;;;21.45;12.73;;;13.00;99.90;;;;;;4863117;29;20049;-72
2022/10/25 06:37:01;;;;;;;19.80;11.93;;;13.00;99.90;;;;;;4878222;29;20063;-71
2022/10/25 06:39:27;;;;;;;19.50;10.70;;;13.00;99.90;;;;;;4863044;29;20059;-72
2022/10/25 06:41:52;;;;;;;18.35;10.70;;;13.00;99.90;;;;;;4878830;29;20049;-72
2022/10/25 06:44:18;;;;;;;19.40;10.52;;;13.10;99.90;;;;;;4878072;29;20041;-72
2022/10/25 06:46:44;;;;;;;20.73;10.02;;;13.00;99.90;;;;;;4878127;29;20055;-72
2022/10/25 06:49:10;;;;;;;16.73;9.60;;;13.00;99.90;;;;;;4878525;29;20443;-72
2022/10/25 06:51:36;;;;;;;16.83;7.65;;;13.00;99.90;;;;;;4862761;29;20053;-71
2022/10/25 06:54:06;;;;;;;14.60;5.85;;;13.00;99.90;;;;;;4878179;29;20060;-71
2022/10/25 06:56:33;;;;;;;12.52;6.90;;;13.10;99.90;;;;;;4878473;29;20474;-72
2022/10/25 06:58:59;;;;;;;13.57;7.60;;;13.10;99.90;;;;;;4879149;29;20084;-72
2022/10/25 07:01:24;;;;;;;19.15;7.50;;;13.10;99.90;;;;;;4878051;29;20108;-72
2022/10/25 07:03:52;;;;;;;15.13;8.38;;;13.10;99.90;;;;;;4877823;29;20049;-72
2022/10/25 07:06:24;;;;;;;14.82;7.15;;;13.10;99.90;;;;;;4879165;29;20439;-71
2022/10/25 07:08:57;;;;;;;15.18;6.60;;;13.10;99.90;;;;;;4862868;29;20057;-71
2022/10/25 07:11:25;;;;;;;13.85;6.72;;;13.10;99.90;;;;;;4877438;29;20056;-72
2022/10/25 07:13:50;;;;;;;13.68;5.40;;;13.10;99.90;;;;;;4879271;29;20502;-72
2022/10/25 07:16:18;;;;;;;10.48;4.85;;;13.10;99.90;;;;;;4865663;29;20067;-72
2022/10/25 07:18:45;;;;;;;11.23;5.43;;;13.10;99.90;;;;;;4881548;29;20045;-71
2022/10/25 07:21:19;;;;;;;13.73;5.20;;;13.10;99.90;;;;;;4881507;29;20124;-72
2022/10/25 07:23:45;;;;;;;10.38;5.03;;;13.20;99.90;;;;;;4882754;29;20052;-72
2022/10/25 07:26:14;;;;;;;12.63;5.07;;;13.20;99.90;;;;;;4865763;29;20068;-72
2022/10/25 07:28:42;;;;;;;11.98;6.38;;;13.20;99.90;;;;;;4882778;29;20053;-72
2022/10/25 07:31:15;;;;;;;14.80;6.13;;;13.20;99.90;;;;;;4881769;29;20056;-71
2022/10/25 07:33:41;;;;;;;;;;;13.20;99.90;;;;;;4881725;29;20049;-72
2022/10/25 07:36:07;;;;;;;8.35;3.83;;;13.20;99.90;;;;;;4881430;29;19931;-72
2022/10/25 07:38:32;;;;;;;17.17;6.40;;;13.20;99.90;;;;;;4881142;29;20057;-72
2022/10/25 07:40:58;;;;;;;13.13;4.78;;;13.20;99.90;;;;;;4881428;29;20059;-73
2022/10/25 07:43:26;;;;;;;11.80;5.00;;;13.20;99.90;;;;;;4882284;29;20131;-71
2022/10/25 07:45:52;;;;;;;11.20;4.82;;;13.20;99.90;;;;;;4881323;29;20048;-72
2022/10/25 07:48:18;;;;;;;12.50;4.70;;;13.30;99.90;;;;;;4881180;29;20097;-72
2022/10/25 07:50:43;;;;;;;15.13;4.70;;;13.30;99.90;;;;;;4865788;29;20053;-72
2022/10/25 07:53:09;;;;;;;18.75;5.13;;;13.30;99.90;;;;;;4882193;29;20093;-73
2022/10/25 07:55:35;;;;;;;10.35;4.72;;;13.30;99.90;;;;;;4880747;29;20091;-72
2022/10/25 07:58:06;;;;;;;12.35;4.90;;;13.30;99.90;;;;;;4865795;29;20455;-72
2022/10/25 08:00:33;;;;;;;11.25;5.05;;;13.30;99.90;;;;;;4881939;29;20060;-71
2022/10/25 08:02:59;;;;;;;10.93;4.30;;;13.40;99.90;;;;;;4881828;29;20132;-70
2022/10/25 08:05:25;;;;;;;12.82;4.88;;;13.40;99.90;;;;;;4881049;29;20219;-72
2022/10/25 08:07:51;;;;;;;13.07;4.72;;;13.40;99.90;;;;;;4880831;29;20071;-71
2022/10/25 08:10:20;;;;;;;13.23;4.85;;;13.40;99.90;;;;;;4881177;29;20056;-71
2022/10/25 08:12:47;;;;;;;14.55;5.28;;;13.40;99.90;;;;;;4881133;29;20088;-72
2022/10/25 08:15:13;;;;;;;13.48;5.07;;;13.50;99.90;;;;;;4865185;29;20057;-71
2022/10/25 08:17:39;;;;;;;10.25;5.03;;;13.40;99.90;;;;;;4881588;29;20125;-72
2022/10/25 08:20:05;;;;;;;15.38;4.90;;;13.50;99.90;;;;;;4880422;29;20431;-71
2022/10/25 08:22:31;;;;;;;10.65;4.82;;;13.50;99.90;;;;;;4880557;29;20060;-71
2022/10/25 08:24:57;;;;;;;14.38;4.93;;;13.50;99.90;;;;;;4881410;29;20053;-71
2022/10/25 08:27:23;;;;;;;11.68;4.13;;;13.50;99.90;;;;;;4880101;29;20060;-71
2022/10/25 08:29:48;;;;;;;12.85;4.15;;;13.60;99.90;;;;;;4865507;29;20505;-71
2022/10/25 08:32:14;;;;;;;10.13;4.53;;;13.60;99.90;;;;;;4880578;29;20205;-71
2022/10/25 08:34:40;;;;;;;12.55;4.60;;;13.60;99.90;;;;;;4881370;29;20041;-71
2022/10/25 08:37:05;;;;;;;12.20;4.22;;;13.70;99.90;;;;;;4880276;29;20061;-71
2022/10/25 08:39:31;;;;;;;14.10;4.72;;;13.70;99.90;;;;;;4864850;29;20177;-71
2022/10/25 08:41:59;;;;;;;10.60;5.00;;;13.70;99.90;;;;;;4880874;29;20056;-71
2022/10/25 08:44:36;;;;;;;13.15;4.90;;;13.70;99.90;;;;;;4880294;29;20431;-72
2022/10/25 08:47:16;;;;;;;13.30;4.50;;;13.80;99.90;;;;;;4864777;29;20051;-72
2022/10/25 08:50:28;;;;;;;9.13;4.38;;;13.80;99.90;;;;;;4880721;29;20053;-73
2022/10/25 08:52:57;;;;;;;14.07;4.75;;;13.80;99.90;;;;;;4811266;29;20060;-73
2022/10/25 08:55:29;;;;;;;12.15;4.38;;;13.90;99.90;;;;;;4841404;29;20042;-74
2022/10/25 08:57:55;;;;;;;12.00;4.68;;;13.90;99.90;;;;;;4864161;29;20064;-74
2022/10/25 09:00:23;;;;;;;15.40;5.00;;;14.00;99.90;;;;;;4880584;29;20087;-74
2022/10/25 09:02:57;;;;;;;12.18;4.80;;;14.00;99.90;;;;;;4879666;29;20056;-75
2022/10/25 09:05:46;;;;;;;12.05;4.63;;;14.00;99.90;;;;;;4877836;29;20536;-74
2022/10/25 09:08:40;;;;;;;10.50;4.85;;;14.00;99.90;;;;;;4878857;29;20056;-75
2022/10/25 09:11:21;;;;;;;13.98;4.68;;;14.00;99.90;;;;;;4840740;29;20049;-75
2022/10/25 09:13:57;;;;;;;10.43;4.55;;;14.10;99.90;;;;;;4878287;29;20052;-75
2022/10/25 09:16:31;;;;;;;9.80;4.20;;;14.10;99.90;;;;;;4878795;29;20045;-75
2022/10/25 09:18:57;;;;;;;13.88;4.28;;;14.10;99.90;;;;;;4877911;29;20053;-72
2022/10/25 09:21:57;;;;;;;15.75;6.82;;;14.10;99.90;;;;;;4871490;29;20080;-72
2022/10/25 09:24:35;;;;;;;15.02;5.32;;;14.10;99.90;;;;;;4875707;29;20041;-71
2022/10/25 09:27:13;;;;;;;10.68;4.40;;;14.10;99.90;;;;;;4873868;29;20060;-73
2022/10/25 09:29:38;;;;;;;11.38;3.90;;;14.10;99.90;;;;;;4877896;29;20109;-72
2022/10/25 09:32:20;;;;;;;8.88;3.33;;;14.20;99.90;;;;;;4878302;29;20458;-71
2022/10/25 09:34:46;;;;;;;12.60;3.83;;;14.20;99.90;;;;;;4878299;29;20049;-71
2022/10/25 09:37:30;;;;;;;10.27;4.15;;;14.20;99.90;;;;;;4878667;29;20051;-71
2022/10/25 09:40:01;;;;;;;11.52;4.07;;;14.20;99.90;;;;;;4877920;29;20061;-72
2022/10/25 09:42:32;;;;;;;10.38;3.70;;;14.20;99.90;;;;;;4878615;29;20446;-72
2022/10/25 09:45:07;;;;;;;12.40;4.35;;;14.20;99.90;;;;;;4877327;29;20033;-73
2022/10/25 09:47:49;;;;;;;12.13;4.00;;;14.30;99.90;;;;;;4879743;29;20139;-72
2022/10/25 09:50:27;;;;;;;7.38;3.97;;;14.30;99.90;;;;;;4879379;29;20041;-72
2022/10/25 09:53:05;;;;;;;11.55;3.83;;;14.30;99.90;;;;;;4879576;29;20045;-72
2022/10/25 09:55:38;;;;;;;14.63;4.00;;;14.30;99.90;;;;;;4878467;29;20609;-72
2022/10/25 09:58:04;;;;;;;10.10;3.78;;;14.40;99.90;;;;;;4878042;29;20056;-72
2022/10/25 10:00:33;;;;;;;9.63;3.75;;;14.40;99.90;;;;;;4878449;29;20482;-73
2022/10/25 10:02:59;;;;;;;13.00;3.75;;;14.40;99.90;;;;;;4877301;29;20073;-71
2022/10/25 10:05:25;;;;;;;10.52;3.20;;;14.40;99.90;;;;;;4878937;29;20045;-71
2022/10/25 10:07:51;;;;;;;7.72;2.97;;;14.50;99.90;;;;;;4878362;29;20049;-71
2022/10/25 10:10:25;;;;;;;10.38;2.97;;;14.40;99.90;;;;;;4875146;29;20044;-71
2022/10/25 10:13:11;;;;;;;9.27;2.80;;;14.40;99.90;;;;;;4879301;29;20068;-71
2022/10/25 10:16:04;;;;;;;10.93;3.58;;;14.50;99.90;;;;;;4875821;29;20053;-71
2022/10/25 10:18:31;;;;;;;5.60;2.63;;;14.50;99.90;;;;;;4878547;29;20101;-71
2022/10/25 10:20:59;;;;;;;6.05;2.97;;;14.50;99.90;;;;;;4875734;29;20044;-71
2022/10/25 10:23:46;;;;;;;9.88;2.60;;;14.60;99.90;;;;;;4862510;29;20045;-72
2022/10/25 10:26:33;;;;;;;10.02;2.58;;;14.60;99.90;;;;;;4869566;29;20132;-72
2022/10/25 10:29:07;;;;;;;7.38;2.10;;;14.60;99.90;;;;;;4875759;29;20045;-72
2022/10/25 10:31:41;;;;;;;6.88;2.05;;;14.60;99.90;;;;;;4878866;29;20041;-71
2022/10/25 10:34:30;;;;;;;6.47;2.58;;;14.60;99.90;;;;;;4879329;29;20363;-71
2022/10/25 10:37:11;;;;;;;5.75;2.30;;;14.70;99.90;;;;;;4862435;29;20044;-72
2022/10/25 10:40:00;;;;;;;7.90;2.17;;;14.70;99.90;;;;;;4872614;29;20052;-72
2022/10/25 10:42:32;;;;;;;9.48;2.22;;;14.70;99.90;;;;;;4876523;29;20053;-72
2022/10/25 10:45:06;;;;;;;6.83;2.17;;;14.70;99.90;;;;;;4877727;29;20078;-72
2022/10/25 10:47:50;;;;;;;8.15;2.50;;;14.80;99.90;;;;;;4862807;29;20092;-71
2022/10/25 10:50:23;;;;;;;7.15;2.17;;;14.80;99.90;;;;;;4879483;29;20045;-73
2022/10/25 10:52:54;;;;;;;10.80;2.60;;;14.80;99.90;;;;;;4881876;29;20053;-72
2022/10/25 10:55:50;;;;;;;5.78;2.15;;;14.90;99.90;;;;;;4863786;29;20080;-72
2022/10/25 10:58:35;;;;;;;8.15;2.10;;;15.00;99.90;;;;;;4862916;29;20061;-72
2022/10/25 11:01:11;;;;;;;6.10;1.73;;;15.10;99.90;;;;;;4880695;29;20053;-72
2022/10/25 11:03:40;;;;;;;4.57;2.08;;;15.20;99.90;;;;;;4863494;29;20052;-73
2022/10/25 11:06:22;;;;;;;6.60;2.25;;;15.30;99.90;;;;;;4881473;29;20112;-72
2022/10/25 11:08:59;;;;;;;5.93;2.10;;;15.30;99.90;;;;;;4881347;29;20056;-72
2022/10/25 11:11:25;;;;;;;7.15;1.98;;;15.40;99.90;;;;;;4880219;29;20406;-73
2022/10/25 11:13:50;;;;;;;6.35;1.73;;;15.40;99.90;;;;;;4881281;29;20060;-72
2022/10/25 11:16:38;;;;;;;5.88;1.95;;;15.50;99.90;;;;;;4881005;29;20078;-72
2022/10/25 11:19:10;;;;;;;6.32;1.75;;;15.50;99.90;;;;;;4879791;29;20052;-72
2022/10/25 11:21:45;;;;;;;5.85;1.60;;;15.50;99.90;;;;;;4882400;29;20041;-72
2022/10/25 11:24:32;;;;;;;4.55;1.52;;;15.50;99.90;;;;;;4881001;29;20040;-71
2022/10/25 11:27:19;;;;;;;5.90;1.58;;;15.50;99.90;;;;;;4879889;29;20049;-71
2022/10/25 11:29:48;;;;;;;3.65;1.60;;;15.60;99.90;;;;;;4879761;29;20049;-72
2022/10/25 11:32:52;;;;;;;7.40;2.15;;;15.60;99.90;;;;;;4877978;29;20081;-72
2022/10/25 11:35:45;;;;;;;4.72;1.15;;;15.60;99.90;;;;;;4876692;29;20107;-71
2022/10/25 11:38:33;;;;;;;6.95;1.52;;;15.60;99.90;;;;;;4881027;29;20498;-72
2022/10/25 11:41:21;;;;;;;4.35;1.52;;;15.70;99.90;;;;;;4865196;29;20041;-72
2022/10/25 11:44:07;;;;;;;5.85;1.70;;;15.60;99.90;;;;;;4880458;29;20037;-73
2022/10/25 11:46:38;;;;;;;5.82;1.48;;;15.60;99.90;;;;;;4866588;29;20065;-73
2022/10/25 11:49:30;;;;;;;4.88;1.50;;;15.60;99.90;;;;;;4881970;29;20402;-72
2022/10/25 11:52:22;;;;;;;4.22;1.38;;;15.60;99.90;;;;;;4880561;29;20045;-72
2022/10/25 11:55:25;;;;;;;6.72;1.30;;;15.60;99.90;;;;;;4879761;29;20061;-71
2022/10/25 11:58:28;;;;;;;5.38;1.25;;;15.60;99.90;;;;;;4880090;29;20097;-71
2022/10/25 12:01:00;;;;;;;6.97;1.60;;;15.60;99.90;;;;;;4880115;29;20045;-73
2022/10/25 12:04:15;;;;;;;6.82;1.30;;;15.60;99.90;;;;;;4881317;29;20041;-72
2022/10/25 12:06:53;;;;;;;5.15;1.65;;;15.60;99.90;;;;;;4865805;29;20065;-72
2022/10/25 12:09:33;;;;;;;4.90;1.50;;;15.50;99.90;;;;;;4877879;29;20045;-72
2022/10/25 12:12:04;;;;;;;3.80;1.35;;;15.50;99.90;;;;;;4877172;29;20052;-72
2022/10/25 12:14:37;;;;;;;5.72;1.30;;;15.50;99.90;;;;;;4881597;29;20049;-72
2022/10/25 12:17:06;;;;;;;2.65;1.20;;;15.50;99.90;;;;;;4879650;29;20104;-72
2022/10/25 12:19:43;;;;;;;4.68;1.10;;;15.40;99.90;;;;;;4881320;29;20049;-72
2022/10/25 12:22:38;;;;;;;5.75;1.52;;;15.40;99.90;;;;;;4879161;29;20103;-72
2022/10/25 12:25:30;;;;;;;6.40;1.30;;;15.30;99.90;;;;;;4878388;29;20117;-72
2022/10/25 12:28:22;;;;;;;4.80;1.45;;;15.20;99.90;;;;;;4879595;29;20048;-72
2022/10/25 12:30:51;;;;;;;4.30;1.52;;;15.20;99.90;;;;;;4879024;29;20045;-72
2022/10/25 12:33:47;;;;;;;4.82;1.35;;;15.10;99.90;;;;;;4879837;29;20049;-72
2022/10/25 12:36:36;;;;;;;4.55;1.00;;;15.10;99.90;;;;;;4879515;29;20061;-72
2022/10/25 12:39:13;;;;;;;4.18;1.00;;;15.20;99.90;;;;;;4878770;29;20045;-71
2022/10/25 12:41:42;;;;;;;2.20;1.10;;;15.30;99.90;;;;;;4878258;29;20140;-72
2022/10/25 12:44:13;;;;;;;8.82;1.70;;;15.40;99.90;;;;;;4880936;29;20045;-72
2022/10/25 12:47:01;;;;;;;5.60;1.10;;;15.40;99.90;;;;;;4885262;29;20044;-71
2022/10/25 12:49:51;;;;;;;5.00;1.20;;;15.40;99.90;;;;;;4879267;29;20127;-72
2022/10/25 12:52:17;;;;;;;5.10;1.20;;;15.40;99.90;;;;;;4879020;29;20045;-71
2022/10/25 12:55:04;;;;;;;4.85;1.58;;;15.40;99.90;;;;;;4879476;29;20056;-71
2022/10/25 12:57:48;;;;;;;2.40;1.10;;;15.40;99.90;;;;;;4886622;29;20080;-71
2022/10/25 13:00:15;;;;;;;4.65;1.20;;;15.40;99.90;;;;;;4880058;29;20624;-71
2022/10/25 13:02:44;;;;;;;8.32;1.38;;;15.40;99.90;;;;;;4879521;29;20115;-71